createdAt,value
2023-05-16T00:00:31.896Z,95.02
2023-05-16T00:10:05.530Z,96.29
2023-05-16T00:19:39.542Z,97.76
2023-05-16T00:29:13.994Z,97.56
2023-05-16T00:38:49.372Z,97.85
2023-05-16T00:48:23.298Z,98.15
2023-05-16T00:57:57.147Z,98.01
2023-05-16T01:07:28.917Z,99.58
2023-05-16T01:17:02.846Z,100.00
2023-05-16T01:26:36.724Z,100.00
2023-05-16T01:36:10.684Z,100.00
2023-05-16T01:45:46.512Z,100.00
2023-05-16T01:55:20.635Z,100.00
2023-05-16T02:04:52.895Z,100.00
2023-05-16T02:14:28.491Z,100.00
2023-05-16T02:24:00.864Z,100.00
2023-05-16T02:33:36.307Z,100.00
2023-05-16T02:43:08.512Z,100.00
2023-05-16T02:52:44.867Z,100.00
2023-05-16T03:02:17.165Z,100.00
2023-05-16T03:11:51.437Z,100.00
2023-05-16T03:21:27.211Z,100.00
2023-05-16T03:31:01.501Z,99.58
2023-05-16T03:40:33.951Z,99.54
2023-05-16T03:50:09.748Z,98.84
2023-05-16T03:59:43.852Z,99.09
2023-05-16T04:09:16.247Z,98.69
2023-05-16T04:18:52.204Z,97.73
2023-05-16T04:28:26.271Z,96.81
2023-05-16T04:37:58.743Z,95.64
2023-05-16T04:39:01.321Z,95.73
2023-05-16T04:48:34.932Z,95.48
2023-05-16T04:58:09.309Z,95.18
2023-05-16T05:07:44.962Z,94.70
2023-05-16T05:17:17.921Z,93.24
2023-05-16T05:26:52.042Z,92.04
2023-05-16T05:36:26.047Z,91.01
2023-05-16T05:37:28.530Z,90.54
2023-05-16T05:47:02.150Z,87.85
2023-05-16T05:48:06.300Z,87.50
2023-05-16T05:49:08.607Z,87.24
2023-05-16T05:58:41.867Z,86.39
2023-05-16T05:59:45.930Z,86.63
2023-05-16T06:00:49.847Z,86.23
2023-05-16T06:01:52.170Z,86.55
2023-05-16T06:02:54.672Z,86.44
2023-05-16T06:03:57.065Z,84.41
2023-05-16T06:05:01.085Z,84.88
2023-05-16T06:06:03.444Z,84.61
2023-05-16T06:07:05.797Z,84.68
2023-05-16T06:08:09.914Z,84.30
2023-05-16T06:17:42.068Z,83.45
2023-05-16T06:18:44.378Z,84.57
2023-05-16T06:19:46.802Z,84.18
2023-05-16T06:20:50.810Z,83.86
2023-05-16T06:21:53.140Z,84.05
2023-05-16T06:22:55.584Z,84.26
2023-05-16T06:23:59.687Z,84.44
2023-05-16T06:25:06.961Z,84.67
2023-05-16T06:26:10.855Z,82.92
2023-05-16T06:27:14.787Z,83.19
2023-05-16T06:28:17.171Z,83.40
2023-05-16T06:29:21.176Z,84.20
2023-05-16T06:30:23.497Z,84.14
2023-05-16T06:31:27.611Z,83.96
2023-05-16T06:32:29.882Z,84.09
2023-05-16T06:33:32.293Z,82.86
2023-05-16T06:34:34.764Z,82.30
2023-05-16T06:35:37.168Z,82.52
2023-05-16T06:36:40.610Z,82.95
2023-05-16T06:37:44.598Z,83.39
2023-05-16T06:38:47.931Z,83.10
2023-05-16T06:39:50.246Z,83.60
2023-05-16T06:40:54.302Z,83.24
2023-05-16T06:41:58.256Z,83.23
2023-05-16T06:51:29.972Z,84.44
2023-05-16T06:52:33.944Z,83.64
2023-05-16T06:53:36.216Z,83.66
2023-05-16T06:54:40.282Z,84.20
2023-05-16T06:55:44.270Z,83.16
2023-05-16T06:56:46.529Z,82.80
2023-05-16T06:57:49.051Z,82.59
2023-05-16T06:58:51.453Z,82.70
2023-05-16T06:59:53.852Z,82.91
2023-05-16T07:00:56.365Z,82.58
2023-05-16T07:01:58.743Z,82.54
2023-05-16T07:03:01.318Z,82.51
2023-05-16T07:04:03.830Z,82.02
2023-05-16T07:05:06.101Z,81.69
2023-05-16T07:06:08.565Z,81.05
2023-05-16T07:07:12.628Z,81.46
2023-05-16T07:08:16.534Z,81.37
2023-05-16T07:09:20.511Z,82.46
2023-05-16T07:10:22.811Z,81.46
2023-05-16T07:11:25.227Z,81.44
2023-05-16T07:12:27.669Z,81.90
2023-05-16T07:13:30.104Z,81.83
2023-05-16T07:14:32.535Z,82.22
2023-05-16T07:15:36.552Z,81.94
2023-05-16T07:16:38.900Z,82.12
2023-05-16T07:17:41.277Z,81.78
2023-05-16T07:18:43.744Z,82.13
2023-05-16T07:19:48.942Z,82.13
2023-05-16T07:20:51.192Z,81.76
2023-05-16T07:21:55.164Z,81.48
2023-05-16T07:22:58.480Z,81.93
2023-05-16T07:24:00.757Z,82.26
2023-05-16T07:25:04.810Z,82.33
2023-05-16T07:26:07.117Z,81.91
2023-05-16T07:27:09.529Z,81.56
2023-05-16T07:28:11.969Z,81.63
2023-05-16T07:29:16.042Z,81.77
2023-05-16T07:30:18.271Z,81.49
2023-05-16T07:31:20.759Z,81.63
2023-05-16T07:32:24.898Z,81.06
2023-05-16T07:33:27.133Z,81.78
2023-05-16T07:34:31.215Z,81.79
2023-05-16T07:35:33.438Z,81.16
2023-05-16T07:36:35.868Z,81.30
2023-05-16T07:37:38.301Z,81.40
2023-05-16T07:38:42.362Z,81.54
2023-05-16T07:39:44.643Z,81.27
2023-05-16T07:40:47.071Z,82.02
2023-05-16T07:41:49.532Z,81.44
2023-05-16T07:42:51.985Z,81.33
2023-05-16T07:43:54.376Z,81.49
2023-05-16T07:44:58.497Z,82.12
2023-05-16T07:46:02.420Z,82.25
2023-05-16T07:55:34.493Z,83.40
2023-05-16T07:56:36.900Z,82.75
2023-05-16T07:57:39.365Z,82.95
2023-05-16T07:58:43.415Z,83.59
2023-05-16T07:59:45.771Z,83.34
2023-05-16T08:00:49.779Z,82.93
2023-05-16T08:01:52.111Z,82.31
2023-05-16T08:02:56.187Z,82.10
2023-05-16T08:04:00.090Z,82.11
2023-05-16T08:05:04.049Z,81.76
2023-05-16T08:06:06.334Z,82.19
2023-05-16T08:07:08.646Z,82.30
2023-05-16T08:08:11.132Z,81.59
2023-05-16T08:09:15.158Z,81.86
2023-05-16T08:10:17.551Z,81.14
2023-05-16T08:11:21.616Z,81.40
2023-05-16T08:12:24.999Z,81.78
2023-05-16T08:13:29.076Z,81.80
2023-05-16T08:14:31.348Z,82.23
2023-05-16T08:15:37.591Z,82.54
2023-05-16T08:16:39.780Z,82.42
2023-05-16T08:17:43.859Z,82.80
2023-05-16T08:18:47.757Z,82.16
2023-05-16T08:19:51.607Z,82.30
2023-05-16T08:20:55.486Z,82.40
2023-05-16T08:21:59.351Z,82.38
2023-05-16T08:23:01.703Z,82.48
2023-05-16T08:24:05.773Z,83.06
2023-05-16T08:25:08.018Z,83.33
2023-05-16T08:26:12.102Z,83.14
2023-05-16T08:27:14.360Z,82.69
2023-05-16T08:28:18.821Z,83.62
2023-05-16T08:29:21.068Z,83.63
2023-05-16T08:30:25.096Z,83.18
2023-05-16T08:39:57.150Z,84.15
2023-05-16T08:40:59.484Z,84.37
2023-05-16T08:42:02.131Z,83.85
2023-05-16T08:43:04.432Z,84.43
2023-05-16T08:44:06.907Z,84.04
2023-05-16T08:45:09.292Z,83.55
2023-05-16T08:46:13.343Z,83.68
2023-05-16T08:47:15.768Z,83.03
2023-05-16T08:48:19.723Z,83.51
2023-05-16T08:49:23.672Z,83.48
2023-05-16T08:50:27.527Z,82.68
2023-05-16T08:51:29.760Z,82.62
2023-05-16T08:52:33.759Z,82.85
2023-05-16T08:53:36.079Z,82.69
2023-05-16T08:54:40.083Z,83.07
2023-05-16T08:55:42.424Z,82.21
2023-05-16T08:56:46.489Z,81.92
2023-05-16T08:57:48.808Z,82.79
2023-05-16T08:58:52.805Z,82.41
2023-05-16T08:59:58.014Z,82.87
2023-05-16T09:00:59.220Z,83.08
2023-05-16T09:02:03.201Z,83.60
2023-05-16T09:03:07.150Z,82.74
2023-05-16T09:04:11.041Z,83.08
2023-05-16T09:05:13.431Z,82.92
2023-05-16T09:06:15.819Z,82.75
2023-05-16T09:07:18.172Z,82.45
2023-05-16T09:08:20.669Z,82.44
2023-05-16T09:09:24.861Z,82.21
2023-05-16T09:10:27.231Z,82.31
2023-05-16T09:11:31.258Z,81.95
2023-05-16T09:12:35.188Z,82.63
2023-05-16T09:13:37.513Z,82.76
2023-05-16T09:14:39.912Z,81.87
2023-05-16T09:15:42.384Z,81.12
2023-05-16T09:16:44.859Z,81.18
2023-05-16T09:17:48.896Z,81.08
2023-05-16T09:18:51.254Z,81.02
2023-05-16T09:19:55.299Z,81.67
2023-05-16T09:20:57.610Z,81.38
2023-05-16T09:22:01.643Z,81.00
2023-05-16T09:23:03.926Z,80.43
2023-05-16T09:24:06.411Z,80.15
2023-05-16T09:25:15.443Z,79.78
2023-05-16T09:26:11.576Z,80.58
2023-05-16T09:27:15.667Z,80.94
2023-05-16T09:28:19.572Z,82.04
2023-05-16T09:29:23.473Z,81.18
2023-05-16T09:30:27.389Z,81.20
2023-05-16T09:31:31.278Z,80.81
2023-05-16T09:32:35.272Z,81.28
2023-05-16T09:33:37.548Z,81.21
2023-05-16T09:34:39.932Z,81.51
2023-05-16T09:35:45.619Z,80.11
2023-05-16T09:36:47.869Z,80.76
2023-05-16T09:37:50.167Z,80.33
2023-05-16T09:38:54.278Z,80.50
2023-05-16T09:39:56.561Z,80.83
2023-05-16T09:40:58.969Z,81.01
2023-05-16T09:42:01.404Z,82.28
2023-05-16T09:43:05.491Z,82.71
2023-05-16T09:44:07.817Z,83.18
2023-05-16T09:45:10.022Z,82.56
2023-05-16T09:46:14.168Z,81.70
2023-05-16T09:47:18.015Z,80.72
2023-05-16T09:48:20.385Z,81.33
2023-05-16T09:49:22.742Z,80.56
2023-05-16T09:50:25.194Z,80.34
2023-05-16T09:51:29.304Z,79.33
2023-05-16T09:52:33.185Z,80.41
2023-05-16T09:53:35.524Z,79.21
2023-05-16T09:54:37.883Z,79.21
2023-05-16T09:55:42.008Z,80.03
2023-05-16T09:56:45.806Z,79.14
2023-05-16T09:57:49.725Z,77.87
2023-05-16T09:58:52.024Z,78.82
2023-05-16T09:59:54.489Z,78.96
2023-05-16T10:00:56.974Z,78.06
2023-05-16T10:01:59.592Z,78.79
2023-05-16T10:03:04.578Z,77.41
2023-05-16T10:04:06.059Z,76.91
2023-05-16T10:05:08.251Z,77.66
2023-05-16T10:06:12.564Z,77.85
2023-05-16T10:07:16.197Z,77.25
2023-05-16T10:08:18.573Z,78.72
2023-05-16T10:09:22.567Z,77.97
2023-05-16T10:10:24.859Z,77.94
2023-05-16T10:11:27.356Z,76.90
2023-05-16T10:12:29.826Z,77.99
2023-05-16T10:13:32.205Z,77.63
2023-05-16T10:14:36.339Z,77.51
2023-05-16T10:15:40.282Z,77.43
2023-05-16T10:16:44.309Z,75.30
2023-05-16T10:17:46.620Z,76.64
2023-05-16T10:18:48.980Z,75.26
2023-05-16T10:19:53.006Z,75.55
2023-05-16T10:20:57.067Z,74.39
2023-05-16T10:21:59.299Z,75.21
2023-05-16T10:23:03.308Z,74.50
2023-05-16T10:24:08.399Z,73.87
2023-05-16T10:25:09.690Z,72.20
2023-05-16T10:26:13.664Z,73.01
2023-05-16T10:27:19.195Z,72.50
2023-05-16T10:28:21.483Z,72.47
2023-05-16T10:29:25.565Z,72.48
2023-05-16T10:30:29.289Z,72.81
2023-05-16T10:31:31.602Z,71.19
2023-05-16T10:32:34.009Z,71.45
2023-05-16T10:33:38.002Z,71.13
2023-05-16T10:34:40.333Z,69.84
2023-05-16T10:35:44.353Z,70.06
2023-05-16T10:36:48.292Z,70.11
2023-05-16T10:37:50.684Z,70.34
2023-05-16T10:38:54.740Z,70.19
2023-05-16T10:39:57.081Z,68.59
2023-05-16T10:41:01.130Z,68.58
2023-05-16T10:42:04.981Z,68.80
2023-05-16T10:43:07.304Z,69.61
2023-05-16T10:44:09.730Z,67.70
2023-05-16T10:45:12.129Z,67.57
2023-05-16T10:46:14.694Z,67.39
2023-05-16T10:47:16.977Z,67.72
2023-05-16T10:48:19.553Z,67.08
2023-05-16T10:49:21.864Z,66.86
2023-05-16T10:50:25.923Z,66.59
2023-05-16T10:51:28.204Z,66.14
2023-05-16T10:52:30.745Z,66.81
2023-05-16T10:53:33.134Z,67.14
2023-05-16T10:54:35.584Z,66.67
2023-05-16T10:55:39.675Z,68.51
2023-05-16T10:56:44.571Z,66.72
2023-05-16T10:57:46.794Z,67.27
2023-05-16T10:58:49.240Z,65.96
2023-05-16T10:59:51.646Z,68.18
2023-05-16T11:00:54.117Z,68.45
2023-05-16T11:01:58.117Z,68.56
2023-05-16T11:03:02.100Z,67.43
2023-05-16T11:04:06.003Z,67.24
2023-05-16T11:05:09.967Z,66.17
2023-05-16T11:06:13.885Z,65.36
2023-05-16T11:07:16.200Z,66.87
2023-05-16T11:08:20.238Z,66.01
2023-05-16T11:09:22.571Z,66.21
2023-05-16T11:10:24.925Z,66.38
2023-05-16T11:11:27.438Z,65.57
2023-05-16T11:12:31.441Z,66.83
2023-05-16T11:13:33.829Z,65.22
2023-05-16T11:14:36.297Z,66.55
2023-05-16T11:15:38.693Z,65.62
2023-05-16T11:16:41.257Z,66.13
2023-05-16T11:17:46.271Z,66.45
2023-05-16T11:18:49.214Z,66.26
2023-05-16T11:19:51.482Z,65.48
2023-05-16T11:20:55.512Z,67.23
2023-05-16T11:21:59.444Z,66.25
2023-05-16T11:23:03.413Z,65.90
2023-05-16T11:24:07.358Z,65.28
2023-05-16T11:25:11.268Z,65.98
2023-05-16T11:26:15.197Z,66.04
2023-05-16T11:27:19.108Z,66.23
2023-05-16T11:28:23.004Z,65.75
2023-05-16T11:29:25.350Z,66.92
2023-05-16T11:30:29.376Z,66.09
2023-05-16T11:31:34.331Z,64.77
2023-05-16T11:32:38.215Z,65.48
2023-05-16T11:42:10.710Z,61.64
2023-05-16T11:43:15.690Z,62.83
2023-05-16T11:44:17.945Z,61.09
2023-05-16T11:45:20.451Z,60.66
2023-05-16T11:46:22.886Z,61.33
2023-05-16T11:47:26.897Z,60.25
2023-05-16T11:48:36.089Z,61.95
2023-05-16T11:49:33.171Z,62.09
2023-05-16T11:50:35.578Z,60.43
2023-05-16T11:51:38.060Z,60.11
2023-05-16T11:52:42.112Z,59.24
2023-05-16T11:53:44.457Z,60.73
2023-05-16T11:54:48.526Z,58.87
2023-05-16T11:55:53.219Z,61.14
2023-05-16T11:56:53.306Z,60.08
2023-05-16T11:57:55.804Z,59.08
2023-05-16T11:58:58.286Z,57.72
2023-05-16T12:00:02.419Z,56.36
2023-05-16T12:01:06.319Z,59.13
2023-05-16T12:02:08.623Z,58.96
2023-05-16T12:03:12.946Z,59.50
2023-05-16T12:04:15.296Z,59.75
2023-05-16T12:05:17.697Z,54.55
2023-05-16T12:06:20.069Z,55.71
2023-05-16T12:07:23.279Z,55.92
2023-05-16T12:08:24.920Z,55.70
2023-05-16T12:09:27.381Z,54.08
2023-05-16T12:10:30.022Z,53.98
2023-05-16T12:11:34.025Z,56.26
2023-05-16T12:12:36.337Z,55.16
2023-05-16T12:13:40.425Z,53.54
2023-05-16T12:14:42.798Z,52.46
2023-05-16T12:15:46.907Z,51.10
2023-05-16T12:16:49.387Z,53.52
2023-05-16T12:17:51.722Z,51.04
2023-05-16T12:18:55.771Z,51.73
2023-05-16T12:19:59.757Z,51.44
2023-05-16T12:21:02.169Z,50.17
2023-05-16T12:22:06.290Z,49.12
2023-05-16T12:23:10.211Z,48.94
2023-05-16T12:24:14.164Z,50.13
2023-05-16T12:25:18.100Z,49.33
2023-05-16T12:26:22.039Z,49.80
2023-05-16T12:27:25.967Z,49.71
2023-05-16T12:28:29.851Z,48.10
2023-05-16T12:29:33.851Z,46.85
2023-05-16T12:30:36.338Z,48.36
2023-05-16T12:31:41.202Z,46.82
2023-05-16T12:32:43.504Z,46.88
2023-05-16T12:33:47.565Z,46.42
2023-05-16T12:34:49.927Z,45.36
2023-05-16T12:35:52.333Z,45.56
2023-05-16T12:36:56.434Z,47.18
2023-05-16T12:38:00.371Z,46.42
2023-05-16T12:39:04.290Z,46.10
2023-05-16T12:40:06.703Z,44.02
2023-05-16T12:41:09.137Z,43.61
2023-05-16T12:42:13.240Z,43.20
2023-05-16T12:43:17.171Z,43.49
2023-05-16T12:44:21.166Z,44.00
2023-05-16T12:45:25.089Z,45.80
2023-05-16T12:46:27.548Z,43.48
2023-05-16T12:47:29.991Z,42.65
2023-05-16T12:48:34.041Z,41.21
2023-05-16T12:49:37.953Z,42.88
2023-05-16T12:50:41.880Z,42.50
2023-05-16T12:51:44.232Z,40.71
2023-05-16T12:52:48.277Z,41.26
2023-05-16T12:54:01.896Z,42.61
2023-05-16T12:54:53.041Z,42.38
2023-05-16T12:55:55.607Z,44.76
2023-05-16T12:56:59.613Z,41.23
2023-05-16T12:58:03.638Z,44.99
2023-05-16T12:59:07.504Z,42.22
2023-05-16T13:00:09.804Z,41.40
2023-05-16T13:01:14.925Z,42.71
2023-05-16T13:02:16.190Z,40.29
2023-05-16T13:03:20.330Z,41.37
2023-05-16T13:04:22.711Z,41.78
2023-05-16T13:05:26.774Z,40.32
2023-05-16T13:06:34.583Z,40.88
2023-05-16T13:07:31.611Z,39.43
2023-05-16T13:08:34.087Z,39.60
2023-05-16T13:09:36.476Z,42.01
2023-05-16T13:10:38.959Z,40.80
2023-05-16T13:11:43.028Z,42.60
2023-05-16T13:12:45.357Z,41.97
2023-05-16T13:13:49.406Z,40.99
2023-05-16T13:14:51.720Z,41.92
2023-05-16T13:15:54.260Z,41.01
2023-05-16T13:17:00.766Z,40.12
2023-05-16T13:18:04.536Z,42.81
2023-05-16T13:19:08.554Z,43.00
2023-05-16T13:20:10.890Z,44.04
2023-05-16T13:21:15.118Z,43.14
2023-05-16T13:22:17.465Z,44.11
2023-05-16T13:23:22.621Z,42.23
2023-05-16T13:24:23.917Z,41.87
2023-05-16T13:25:28.173Z,40.41
2023-05-16T13:26:30.389Z,41.10
2023-05-16T13:27:34.530Z,38.00
2023-05-16T13:28:38.536Z,38.58
2023-05-16T13:29:40.790Z,40.42
2023-05-16T13:30:44.914Z,39.31
2023-05-16T13:31:47.369Z,38.55
2023-05-16T13:32:49.781Z,37.13
2023-05-16T13:33:52.246Z,39.97
2023-05-16T13:34:56.288Z,38.21
2023-05-16T13:36:00.221Z,37.30
2023-05-16T13:37:02.544Z,37.20
2023-05-16T13:38:04.962Z,40.18
2023-05-16T13:39:07.433Z,38.57
2023-05-16T13:40:09.897Z,38.35
2023-05-16T13:41:13.929Z,39.13
2023-05-16T13:42:17.921Z,38.85
2023-05-16T13:43:21.869Z,37.43
2023-05-16T13:44:24.149Z,38.79
2023-05-16T13:45:28.363Z,39.90
2023-05-16T13:46:34.471Z,39.78
2023-05-16T13:47:38.257Z,40.22
2023-05-16T13:48:40.621Z,41.47
2023-05-16T13:49:44.932Z,39.68
2023-05-16T13:50:47.366Z,38.57
2023-05-16T13:51:49.770Z,41.07
2023-05-16T13:52:53.838Z,38.62
2023-05-16T13:53:56.334Z,37.06
2023-05-16T13:55:00.392Z,39.03
2023-05-16T13:56:03.808Z,36.81
2023-05-16T13:57:06.165Z,37.68
2023-05-16T13:58:08.668Z,36.87
2023-05-16T13:59:13.674Z,36.28
2023-05-16T14:01:16.150Z,35.46
2023-05-16T14:02:18.809Z,34.33
2023-05-16T14:03:23.024Z,37.02
2023-05-16T14:04:27.890Z,36.73
2023-05-16T14:05:31.590Z,34.86
2023-05-16T14:06:35.614Z,36.19
2023-05-16T14:07:37.980Z,35.73
2023-05-16T14:08:42.070Z,34.11
2023-05-16T14:09:46.068Z,34.03
2023-05-16T14:10:50.088Z,34.22
2023-05-16T14:11:54.427Z,33.75
2023-05-16T14:12:58.250Z,34.31
2023-05-16T14:14:00.549Z,34.52
2023-05-16T14:15:04.655Z,34.13
2023-05-16T14:16:08.617Z,36.67
2023-05-16T14:17:12.583Z,37.56
2023-05-16T14:18:16.518Z,38.75
2023-05-16T14:19:20.711Z,37.48
2023-05-16T14:20:24.457Z,36.95
2023-05-16T14:21:28.377Z,35.15
2023-05-16T14:22:30.862Z,39.01
2023-05-16T14:23:33.286Z,35.33
2023-05-16T14:24:35.634Z,36.66
2023-05-16T14:25:38.069Z,36.94
2023-05-16T14:26:42.133Z,37.83
2023-05-16T14:27:44.501Z,36.49
2023-05-16T14:28:46.994Z,37.48
2023-05-16T14:29:51.062Z,38.41
2023-05-16T14:30:53.383Z,38.61
2023-05-16T14:31:57.573Z,37.68
2023-05-16T14:32:59.897Z,37.11
2023-05-16T14:34:03.898Z,35.24
2023-05-16T14:35:06.225Z,36.50
2023-05-16T14:36:10.247Z,35.87
2023-05-16T14:37:14.193Z,36.99
2023-05-16T14:38:16.500Z,36.88
2023-05-16T14:39:18.930Z,35.59
2023-05-16T14:40:23.018Z,36.86
2023-05-16T14:41:25.389Z,36.94
2023-05-16T14:42:27.901Z,35.08
2023-05-16T14:43:31.326Z,37.43
2023-05-16T14:44:35.342Z,36.40
2023-05-16T14:45:39.238Z,36.47
2023-05-16T14:46:41.750Z,35.16
2023-05-16T14:47:45.745Z,36.71
2023-05-16T14:48:47.964Z,34.69
2023-05-16T14:49:50.429Z,36.02
2023-05-16T14:50:52.900Z,37.32
2023-05-16T14:51:55.334Z,36.53
2023-05-16T14:52:59.418Z,37.58
2023-05-16T14:54:03.361Z,36.71
2023-05-16T14:55:06.857Z,35.76
2023-05-16T14:56:10.910Z,37.14
2023-05-16T14:57:14.891Z,36.96
2023-05-16T14:58:18.828Z,35.89
2023-05-16T14:59:22.803Z,36.15
2023-05-16T15:00:27.008Z,36.36
2023-05-16T15:01:29.159Z,36.25
2023-05-16T15:02:31.646Z,37.38
2023-05-16T15:03:47.265Z,34.23
2023-05-16T15:04:38.106Z,35.06
2023-05-16T15:05:42.111Z,34.02
2023-05-16T15:06:44.452Z,33.88
2023-05-16T15:07:46.866Z,34.75
2023-05-16T15:08:54.916Z,35.56
2023-05-16T15:09:58.649Z,36.02
2023-05-16T15:11:01.007Z,36.26
2023-05-16T15:12:03.382Z,36.85
2023-05-16T15:13:05.925Z,37.03
2023-05-16T15:14:09.334Z,36.46
2023-05-16T15:15:13.069Z,36.44
2023-05-16T15:16:14.186Z,36.75
2023-05-16T15:17:16.616Z,37.14
2023-05-16T15:18:18.998Z,36.74
2023-05-16T15:19:23.188Z,39.24
2023-05-16T15:20:25.731Z,38.36
2023-05-16T15:21:29.624Z,41.31
2023-05-16T15:22:33.568Z,37.56
2023-05-16T15:23:37.546Z,37.81
2023-05-16T15:24:41.511Z,37.32
2023-05-16T15:25:43.762Z,36.17
2023-05-16T15:26:46.210Z,37.68
2023-05-16T15:27:48.647Z,36.05
2023-05-16T15:28:51.129Z,37.00
2023-05-16T15:29:55.154Z,37.17
2023-05-16T15:30:59.084Z,39.30
2023-05-16T15:32:03.089Z,37.97
2023-05-16T15:33:07.022Z,36.49
2023-05-16T15:34:10.983Z,39.41
2023-05-16T15:35:13.328Z,37.02
2023-05-16T15:36:15.807Z,36.54
2023-05-16T15:37:19.897Z,37.00
2023-05-16T15:38:23.851Z,37.78
2023-05-16T15:39:27.837Z,34.12
2023-05-16T15:40:30.179Z,33.21
2023-05-16T15:41:56.812Z,34.56
2023-05-16T15:42:36.811Z,34.79
2023-05-16T15:43:44.889Z,33.24
2023-05-16T15:44:47.064Z,35.37
2023-05-16T15:45:51.213Z,35.01
2023-05-16T15:46:54.507Z,34.42
2023-05-16T15:47:58.557Z,33.16
2023-05-16T15:49:00.849Z,33.21
2023-05-16T15:50:04.963Z,33.24
2023-05-16T15:51:07.309Z,32.51
2023-05-16T15:52:09.764Z,32.74
2023-05-16T15:53:12.177Z,32.77
2023-05-16T15:54:14.654Z,32.70
2023-05-16T15:55:17.172Z,35.61
2023-05-16T15:56:21.221Z,35.05
2023-05-16T15:57:23.603Z,33.25
2023-05-16T15:58:26.083Z,33.99
2023-05-16T15:59:28.559Z,32.88
2023-05-16T16:00:32.641Z,33.66
2023-05-16T16:01:34.981Z,33.52
2023-05-16T16:02:37.591Z,34.64
2023-05-16T16:03:40.171Z,34.37
2023-05-16T16:04:42.420Z,33.31
2023-05-16T16:05:46.531Z,30.61
2023-05-16T16:06:48.899Z,32.42
2023-05-16T16:07:51.388Z,32.08
2023-05-16T16:08:53.876Z,34.68
2023-05-16T16:09:57.987Z,32.30
2023-05-16T16:11:00.407Z,31.63
2023-05-16T16:12:02.791Z,31.12
2023-05-16T16:13:06.852Z,31.88
2023-05-16T16:14:09.291Z,31.08
2023-05-16T16:15:13.355Z,30.54
2023-05-16T16:16:15.761Z,31.23
2023-05-16T16:17:18.174Z,33.70
2023-05-16T16:18:20.664Z,34.30
2023-05-16T16:19:24.758Z,32.47
2023-05-16T16:20:27.049Z,32.21
2023-05-16T16:21:29.476Z,34.17
2023-05-16T16:22:33.573Z,32.39
2023-05-16T16:23:41.583Z,33.96
2023-05-16T16:24:45.302Z,32.09
2023-05-16T16:25:49.221Z,32.27
2023-05-16T16:26:51.594Z,33.47
2023-05-16T16:27:53.982Z,31.51
2023-05-16T16:28:56.523Z,32.16
2023-05-16T16:29:58.995Z,33.39
2023-05-16T16:31:01.389Z,31.57
2023-05-16T16:32:03.876Z,31.25
2023-05-16T16:33:06.486Z,32.37
2023-05-16T16:34:10.493Z,33.14
2023-05-16T16:35:12.814Z,32.53
2023-05-16T16:36:15.345Z,33.50
2023-05-16T16:37:19.336Z,33.63
2023-05-16T16:38:21.748Z,32.11
2023-05-16T16:39:24.245Z,33.78
2023-05-16T16:40:30.517Z,35.06
2023-05-16T16:41:32.728Z,32.56
2023-05-16T16:42:36.771Z,34.60
2023-05-16T16:43:40.956Z,32.15
2023-05-16T16:44:44.937Z,32.21
2023-05-16T16:45:47.284Z,33.37
2023-05-16T16:46:49.843Z,32.34
2023-05-16T16:47:52.300Z,33.24
2023-05-16T16:48:54.698Z,34.08
2023-05-16T16:49:57.147Z,31.78
2023-05-16T16:50:59.616Z,32.09
2023-05-16T16:52:02.099Z,31.52
2023-05-16T16:53:06.123Z,31.73
2023-05-16T16:54:11.061Z,32.12
2023-05-16T16:55:13.306Z,32.57
2023-05-16T16:56:15.813Z,32.78
2023-05-16T16:57:18.305Z,33.69
2023-05-16T16:58:22.360Z,33.86
2023-05-16T16:59:26.248Z,35.34
2023-05-16T17:00:30.221Z,34.01
2023-05-16T17:01:34.982Z,34.22
2023-05-16T17:02:36.512Z,35.46
2023-05-16T17:03:38.960Z,34.97
2023-05-16T17:04:41.369Z,33.77
2023-05-16T17:05:45.452Z,33.90
2023-05-16T17:06:48.719Z,33.34
2023-05-16T17:07:51.847Z,33.36
2023-05-16T17:08:54.192Z,33.11
2023-05-16T17:09:58.223Z,34.12
2023-05-16T17:11:00.855Z,33.98
2023-05-16T17:12:04.903Z,34.28
2023-05-16T17:13:08.818Z,34.40
2023-05-16T17:14:11.227Z,34.31
2023-05-16T17:15:13.598Z,34.32
2023-05-16T17:16:16.058Z,34.18
2023-05-16T17:17:18.516Z,34.95
2023-05-16T17:18:22.533Z,34.55
2023-05-16T17:19:26.454Z,34.26
2023-05-16T17:20:34.304Z,35.96
2023-05-16T17:21:36.477Z,35.79
2023-05-16T17:22:44.471Z,36.26
2023-05-16T17:23:48.152Z,36.70
2023-05-16T17:24:50.497Z,34.79
2023-05-16T17:25:52.970Z,35.05
2023-05-16T17:26:55.431Z,35.19
2023-05-16T17:27:57.845Z,35.00
2023-05-16T17:29:01.289Z,35.42
2023-05-16T17:30:03.688Z,34.95
2023-05-16T17:31:07.775Z,35.49
2023-05-16T17:32:10.109Z,36.08
2023-05-16T17:33:12.542Z,35.88
2023-05-16T17:34:17.561Z,36.90
2023-05-16T17:35:21.391Z,36.61
2023-05-16T17:36:23.654Z,36.95
2023-05-16T17:37:27.047Z,37.16
2023-05-16T17:38:29.349Z,37.88
2023-05-16T17:39:33.366Z,38.03
2023-05-16T17:40:35.706Z,38.23
2023-05-16T17:41:38.076Z,39.72
2023-05-16T17:42:41.546Z,39.09
2023-05-16T17:43:45.393Z,39.76
2023-05-16T17:44:47.861Z,40.02
2023-05-16T17:45:50.153Z,39.63
2023-05-16T17:46:52.549Z,39.97
2023-05-16T17:47:55.057Z,39.95
2023-05-16T17:49:03.069Z,41.52
2023-05-16T17:50:06.043Z,41.13
2023-05-16T17:51:07.592Z,41.61
2023-05-16T17:52:11.605Z,41.01
2023-05-16T17:53:14.010Z,40.58
2023-05-16T17:54:18.037Z,39.18
2023-05-16T17:55:21.954Z,39.74
2023-05-16T17:56:25.805Z,38.97
2023-05-16T17:57:29.153Z,38.72
2023-05-16T17:58:31.509Z,39.34
2023-05-16T17:59:33.973Z,38.78
2023-05-16T18:00:36.324Z,39.59
2023-05-16T18:01:40.363Z,39.74
2023-05-16T18:02:42.690Z,40.01
2023-05-16T18:03:45.220Z,40.53
2023-05-16T18:04:49.117Z,41.15
2023-05-16T18:05:51.479Z,40.83
2023-05-16T18:06:55.461Z,41.52
2023-05-16T18:08:05.479Z,42.14
2023-05-16T18:09:06.462Z,42.78
2023-05-16T18:10:08.876Z,42.73
2023-05-16T18:11:13.880Z,42.50
2023-05-16T18:12:16.107Z,42.61
2023-05-16T18:13:19.525Z,43.04
2023-05-16T18:14:23.600Z,43.67
2023-05-16T18:15:27.512Z,44.42
2023-05-16T18:16:31.309Z,44.45
2023-05-16T18:17:33.674Z,43.67
2023-05-16T18:18:37.865Z,44.04
2023-05-16T18:19:39.960Z,44.39
2023-05-16T18:20:42.387Z,44.55
2023-05-16T18:21:44.857Z,44.67
2023-05-16T18:22:48.859Z,44.99
2023-05-16T18:23:52.921Z,44.39
2023-05-16T18:24:55.138Z,45.12
2023-05-16T18:26:00.255Z,44.75
2023-05-16T18:27:02.431Z,46.03
2023-05-16T18:28:04.834Z,45.53
2023-05-16T18:29:08.832Z,45.82
2023-05-16T18:30:11.120Z,45.36
2023-05-16T18:31:13.583Z,46.01
2023-05-16T18:32:15.977Z,46.44
2023-05-16T18:33:18.377Z,46.26
2023-05-16T18:34:22.371Z,47.15
2023-05-16T18:35:24.696Z,47.43
2023-05-16T18:36:28.152Z,46.78
2023-05-16T18:37:33.077Z,46.59
2023-05-16T18:38:35.382Z,46.76
2023-05-16T18:39:37.736Z,47.84
2023-05-16T18:40:41.148Z,47.75
2023-05-16T18:41:43.509Z,47.53
2023-05-16T18:42:45.936Z,48.70
2023-05-16T18:43:48.363Z,48.38
2023-05-16T18:44:51.862Z,48.65
2023-05-16T18:45:54.190Z,48.97
2023-05-16T18:46:58.304Z,49.79
2023-05-16T18:48:02.211Z,49.95
2023-05-16T18:57:31.354Z,52.66
2023-05-16T18:58:36.473Z,51.93
2023-05-16T18:59:41.364Z,52.35
2023-05-16T19:00:45.258Z,53.16
2023-05-16T19:10:14.634Z,56.38
2023-05-16T19:19:48.783Z,59.47
2023-05-16T19:20:51.110Z,60.15
2023-05-16T19:30:23.745Z,63.71
2023-05-16T19:39:56.276Z,64.08
2023-05-16T19:49:29.038Z,65.32
2023-05-16T19:59:03.392Z,64.98
2023-05-16T20:08:38.690Z,66.62
2023-05-16T20:18:14.363Z,68.01
2023-05-16T20:27:44.499Z,66.48
2023-05-16T20:28:46.907Z,67.16
2023-05-16T20:38:21.563Z,66.78
2023-05-16T20:47:55.123Z,66.43
2023-05-16T20:57:29.989Z,66.72
2023-05-16T21:07:01.138Z,66.91
2023-05-16T21:16:34.927Z,67.00
2023-05-16T21:26:09.244Z,68.04
2023-05-16T21:35:42.805Z,69.21
2023-05-16T21:45:15.942Z,70.78
2023-05-16T21:54:48.534Z,72.23
2023-05-16T22:04:21.504Z,73.09
2023-05-16T22:13:55.342Z,73.63
2023-05-16T22:23:30.001Z,73.21
2023-05-16T22:33:02.460Z,72.94
2023-05-16T22:42:36.631Z,73.40
2023-05-16T22:52:11.998Z,72.83
2023-05-16T23:01:45.755Z,72.86
2023-05-16T23:11:19.294Z,72.60
2023-05-16T23:20:52.205Z,72.98
2023-05-16T23:30:26.732Z,73.53
2023-05-16T23:40:01.653Z,74.06
2023-05-16T23:49:35.203Z,73.97
2023-05-16T23:59:07.690Z,74.42
